createdAt,value
2022-12-26T00:00:54.335Z,48.41
2022-12-26T00:03:22.134Z,48.48
2022-12-26T00:05:51.146Z,48.51
2022-12-26T00:08:18.865Z,48.43
2022-12-26T00:10:46.552Z,48.40
2022-12-26T00:13:40.071Z,48.52
2022-12-26T00:45:15.740Z,48.61
2022-12-26T00:47:43.309Z,48.69
2022-12-26T00:50:15.250Z,48.58
2022-12-26T00:52:43.871Z,48.63
2022-12-26T00:55:11.505Z,48.74
2022-12-26T00:57:39.088Z,48.71
2022-12-26T01:00:07.396Z,48.75
2022-12-26T01:02:39.056Z,48.63
2022-12-26T01:05:10.414Z,48.65
2022-12-26T01:08:21.286Z,48.65
2022-12-26T01:10:25.951Z,48.68
2022-12-26T01:12:53.467Z,48.70
2022-12-26T01:45:37.721Z,48.98
2022-12-26T01:48:06.079Z,48.85
2022-12-26T01:50:36.793Z,48.96
2022-12-26T01:53:05.721Z,48.86
2022-12-26T01:55:33.674Z,48.80
2022-12-26T01:58:02.491Z,48.84
2022-12-26T02:00:30.319Z,48.92
2022-12-26T02:03:16.674Z,48.93
2022-12-26T02:05:44.676Z,49.02
2022-12-26T02:08:13.442Z,49.20
2022-12-26T02:10:43.677Z,49.19
2022-12-26T02:13:12.830Z,49.08
2022-12-26T02:15:40.482Z,49.14
2022-12-26T02:18:09.482Z,49.26
2022-12-26T02:20:40.345Z,49.31
2022-12-26T02:23:29.354Z,49.41
2022-12-26T02:26:15.728Z,49.53
2022-12-26T02:28:47.916Z,49.72
2022-12-26T02:31:17.053Z,49.61
2022-12-26T02:33:47.321Z,49.48
2022-12-26T02:36:20.596Z,49.37
2022-12-26T02:38:49.264Z,49.33
2022-12-26T02:41:21.631Z,49.55
2022-12-26T02:43:51.155Z,49.66
2022-12-26T02:46:39.500Z,49.43
2022-12-26T02:49:07.487Z,49.33
2022-12-26T02:51:55.461Z,49.47
2022-12-26T02:54:42.452Z,49.32
2022-12-26T02:57:27.874Z,49.37
2022-12-26T03:47:16.171Z,49.64
2022-12-26T03:50:02.560Z,49.48
2022-12-26T03:52:49.290Z,49.44
2022-12-26T03:55:35.298Z,49.51
2022-12-26T03:58:21.604Z,49.72
2022-12-26T04:47:38.063Z,49.91
2022-12-26T04:50:14.333Z,49.84
2022-12-26T04:52:58.793Z,49.91
2022-12-26T04:55:26.871Z,50.00
2022-12-26T04:57:54.529Z,49.94
2022-12-26T05:32:49.225Z,49.91
2022-12-26T05:35:16.842Z,49.81
2022-12-26T05:37:44.389Z,49.85
2022-12-26T05:40:12.372Z,49.91
2022-12-26T05:42:39.946Z,49.73
2022-12-26T05:45:08.126Z,49.83
2022-12-26T05:47:37.160Z,49.82
2022-12-26T05:50:04.919Z,49.78
2022-12-26T05:52:32.827Z,49.85
2022-12-26T05:55:00.620Z,49.85
2022-12-26T05:57:28.226Z,49.84
2022-12-26T05:59:55.796Z,49.70
2022-12-26T06:02:23.483Z,49.74
2022-12-26T06:04:52.533Z,49.83
2022-12-26T06:07:20.107Z,49.77
2022-12-26T06:09:48.009Z,49.86
2022-12-26T06:12:15.844Z,49.75
2022-12-26T06:14:43.438Z,49.67
2022-12-26T06:17:11.283Z,49.79
2022-12-26T06:19:44.671Z,49.73
2022-12-26T06:22:15.885Z,49.68
2022-12-26T06:24:43.500Z,49.74
2022-12-26T06:27:11.075Z,49.89
2022-12-26T06:29:38.641Z,49.90
2022-12-26T06:32:06.580Z,49.71
2022-12-26T06:34:34.374Z,49.66
2022-12-26T06:37:02.161Z,49.72
2022-12-26T06:39:31.139Z,49.72
2022-12-26T06:41:58.734Z,49.72
2022-12-26T06:44:26.570Z,49.86
2022-12-26T06:46:54.171Z,49.85
2022-12-26T06:49:26.212Z,49.91
2022-12-26T06:51:56.363Z,49.73
2022-12-26T06:54:24.436Z,49.72
2022-12-26T06:56:53.441Z,49.64
2022-12-26T06:59:20.971Z,49.75
2022-12-26T07:01:49.177Z,49.70
2022-12-26T07:04:17.469Z,49.81
2022-12-26T07:06:44.998Z,49.67
2022-12-26T07:09:14.592Z,49.81
2022-12-26T07:11:43.205Z,49.73
2022-12-26T07:14:12.246Z,49.77
2022-12-26T07:16:40.217Z,49.74
2022-12-26T07:19:08.003Z,49.75
2022-12-26T07:21:40.417Z,49.75
2022-12-26T07:24:09.089Z,49.95
2022-12-26T07:26:36.724Z,49.69
2022-12-26T07:29:04.317Z,49.65
2022-12-26T07:31:33.312Z,49.76
2022-12-26T07:34:00.948Z,49.72
2022-12-26T07:36:28.582Z,49.72
2022-12-26T07:38:56.157Z,49.63
2022-12-26T07:41:41.365Z,49.70
2022-12-26T07:44:09.792Z,49.65
2022-12-26T07:46:38.823Z,49.71
2022-12-26T07:49:06.467Z,49.72
2022-12-26T07:51:34.330Z,49.78
2022-12-26T07:54:05.722Z,49.78
2022-12-26T07:56:38.217Z,49.81
2022-12-26T07:59:05.880Z,49.77
2022-12-26T08:45:34.839Z,50.09
2022-12-26T08:48:03.238Z,50.11
2022-12-26T08:50:31.431Z,50.03
2022-12-26T08:53:01.132Z,49.99
2022-12-26T08:55:28.741Z,49.99
2022-12-26T08:57:56.342Z,49.93
2022-12-26T09:47:23.109Z,50.06
2022-12-26T09:49:51.871Z,50.05
2022-12-26T09:52:20.466Z,50.01
2022-12-26T09:54:49.291Z,50.01
2022-12-26T09:57:17.211Z,50.11
2022-12-26T09:59:46.420Z,50.12
2022-12-26T10:46:25.088Z,49.89
2022-12-26T10:48:54.390Z,50.06
2022-12-26T10:51:22.181Z,49.93
2022-12-26T10:53:50.433Z,49.95
2022-12-26T10:56:18.458Z,49.97
2022-12-26T10:58:46.804Z,49.96
2022-12-26T11:01:33.974Z,49.93
2022-12-26T11:04:03.580Z,49.99
2022-12-26T11:06:32.705Z,49.94
2022-12-26T11:09:00.356Z,50.11
2022-12-26T11:11:45.583Z,50.02
2022-12-26T11:14:33.774Z,50.07
2022-12-26T11:17:02.917Z,50.16
2022-12-26T11:19:32.490Z,50.07
2022-12-26T11:22:17.536Z,50.14
2022-12-26T11:24:45.118Z,50.10
2022-12-26T11:27:18.095Z,50.04
2022-12-26T11:29:45.664Z,49.97
2022-12-26T11:32:16.964Z,49.97
2022-12-26T11:34:47.012Z,49.98
2022-12-26T11:37:20.559Z,49.88
2022-12-26T11:39:50.483Z,50.02
2022-12-26T11:42:19.122Z,50.03
2022-12-26T11:44:46.688Z,50.04
2022-12-26T11:47:14.769Z,50.08
2022-12-26T11:49:46.591Z,49.89
2022-12-26T11:52:37.584Z,49.77
2022-12-26T11:55:23.895Z,50.02
2022-12-26T11:57:58.622Z,49.92
2022-12-26T12:00:27.259Z,49.98
2022-12-26T12:02:54.952Z,49.97
2022-12-26T12:05:39.451Z,49.95
2022-12-26T12:08:25.037Z,49.94
2022-12-26T12:10:58.451Z,49.93
2022-12-26T12:13:28.843Z,49.95
2022-12-26T12:15:58.546Z,50.07
2022-12-26T12:18:29.949Z,49.99
2022-12-26T12:21:00.265Z,49.93
2022-12-26T12:23:36.479Z,49.96
2022-12-26T12:26:07.521Z,50.12
2022-12-26T12:28:49.636Z,49.98
2022-12-26T12:31:19.784Z,49.97
2022-12-26T12:33:49.465Z,50.09
2022-12-26T12:36:18.092Z,49.94
2022-12-26T12:38:54.685Z,49.95
2022-12-26T12:41:29.701Z,49.99
2022-12-26T12:43:57.559Z,49.91
2022-12-26T12:46:28.459Z,49.99
2022-12-26T12:49:02.211Z,49.95
2022-12-26T12:51:34.656Z,50.06
2022-12-26T12:54:35.247Z,49.95
2022-12-26T12:57:05.785Z,50.05
2022-12-26T12:59:35.909Z,50.07
2022-12-26T13:02:09.192Z,50.12
2022-12-26T13:04:39.549Z,50.12
2022-12-26T13:07:08.806Z,50.11
2022-12-26T13:09:37.042Z,50.15
2022-12-26T13:12:06.891Z,50.26
2022-12-26T13:14:36.640Z,50.06
2022-12-26T13:17:06.031Z,50.03
2022-12-26T13:19:34.549Z,50.12
2022-12-26T13:22:03.434Z,50.14
2022-12-26T13:24:32.202Z,50.06
2022-12-26T13:27:02.690Z,50.13
2022-12-26T13:29:35.061Z,50.02
2022-12-26T13:32:04.431Z,50.26
2022-12-26T13:34:32.366Z,50.11
2022-12-26T13:37:00.487Z,50.07
2022-12-26T13:39:40.266Z,50.07
2022-12-26T13:42:38.515Z,50.21
2022-12-26T13:45:24.503Z,50.21
2022-12-26T13:47:53.672Z,50.33
2022-12-26T13:50:40.122Z,50.24
2022-12-26T13:53:09.499Z,50.27
2022-12-26T13:55:43.612Z,50.34
2022-12-26T13:58:32.017Z,50.38
2022-12-26T14:01:01.461Z,50.36
2022-12-26T14:03:42.193Z,50.50
2022-12-26T14:06:23.339Z,50.48
2022-12-26T14:09:05.583Z,50.43
2022-12-26T14:11:36.434Z,50.40
2022-12-26T14:14:06.683Z,50.51
2022-12-26T14:16:35.697Z,50.38
2022-12-26T14:19:06.522Z,50.41
2022-12-26T14:21:39.853Z,50.30
2022-12-26T14:24:10.487Z,50.28
2022-12-26T14:26:41.821Z,50.47
2022-12-26T14:29:12.711Z,50.59
2022-12-26T14:31:41.442Z,50.44
2022-12-26T14:34:13.953Z,50.40
2022-12-26T14:36:42.562Z,50.29
2022-12-26T14:39:13.045Z,50.32
2022-12-26T14:42:17.268Z,50.33
2022-12-26T14:44:45.222Z,50.31
2022-12-26T14:47:12.987Z,50.27
2022-12-26T14:49:42.893Z,50.33
2022-12-26T14:52:32.195Z,50.42
2022-12-26T14:54:59.863Z,50.35
2022-12-26T14:57:39.913Z,50.25
2022-12-26T15:00:14.154Z,50.25
2022-12-26T15:02:42.285Z,50.21
2022-12-26T15:05:13.305Z,50.23
2022-12-26T15:07:59.753Z,50.30
2022-12-26T15:10:42.216Z,50.27
2022-12-26T15:13:28.169Z,50.21
2022-12-26T15:16:02.703Z,50.19
2022-12-26T15:19:00.509Z,50.23
2022-12-26T15:21:34.325Z,50.06
2022-12-26T15:24:19.551Z,50.08
2022-12-26T15:26:58.028Z,50.13
2022-12-26T15:29:29.484Z,50.06
2022-12-26T15:31:59.837Z,50.13
2022-12-26T15:34:51.184Z,50.18
2022-12-26T15:37:24.390Z,50.21
2022-12-26T15:39:54.076Z,50.19
2022-12-26T15:42:25.416Z,50.31
2022-12-26T15:44:54.518Z,50.32
2022-12-26T15:47:24.149Z,50.40
2022-12-26T15:49:57.622Z,50.48
2022-12-26T15:52:28.845Z,50.42
2022-12-26T15:55:00.422Z,50.25
2022-12-26T15:57:29.907Z,50.28
2022-12-26T16:00:13.057Z,50.32
2022-12-26T16:02:42.521Z,50.35
2022-12-26T16:05:15.107Z,50.27
2022-12-26T16:07:45.257Z,50.21
2022-12-26T16:10:16.570Z,50.30
2022-12-26T16:12:56.760Z,50.36
2022-12-26T16:15:25.297Z,50.42
2022-12-26T16:17:52.868Z,50.47
2022-12-26T16:20:41.323Z,50.52
2022-12-26T16:23:12.527Z,50.54
2022-12-26T16:25:40.129Z,50.33
2022-12-26T16:28:07.923Z,50.41
2022-12-26T16:30:37.047Z,50.45
2022-12-26T16:33:05.297Z,50.40
2022-12-26T16:35:33.260Z,50.54
2022-12-26T16:38:01.407Z,50.47
2022-12-26T16:40:30.545Z,50.46
2022-12-26T16:42:59.547Z,50.51
2022-12-26T16:45:27.384Z,50.53
2022-12-26T16:47:55.123Z,50.43
2022-12-26T16:50:23.111Z,50.40
2022-12-26T16:52:50.720Z,50.34
2022-12-26T16:55:25.177Z,50.30
2022-12-26T16:57:56.264Z,50.40
2022-12-26T17:00:24.146Z,50.28
2022-12-26T17:02:53.097Z,50.43
2022-12-26T17:05:21.928Z,50.58
2022-12-26T17:07:50.655Z,50.29
2022-12-26T17:10:19.280Z,50.38
2022-12-26T17:12:47.436Z,50.10
2022-12-26T17:15:20.613Z,50.19
2022-12-26T17:17:48.262Z,50.16
2022-12-26T17:20:30.008Z,50.20
2022-12-26T17:22:57.697Z,50.30
2022-12-26T17:25:26.741Z,50.34
2022-12-26T17:28:15.102Z,50.35
2022-12-26T17:30:44.386Z,50.31
2022-12-26T17:33:12.956Z,50.34
2022-12-26T17:36:25.327Z,50.18
2022-12-26T17:38:28.431Z,50.50
2022-12-26T17:40:56.524Z,50.23
2022-12-26T17:43:24.760Z,50.28
2022-12-26T17:45:53.700Z,50.35
2022-12-26T17:48:21.249Z,50.29
2022-12-26T17:50:49.310Z,50.28
2022-12-26T17:53:21.675Z,50.21
2022-12-26T17:55:49.323Z,50.35
2022-12-26T17:58:16.866Z,50.21
2022-12-26T18:00:44.643Z,50.24
2022-12-26T18:03:13.660Z,50.21
2022-12-26T18:05:41.372Z,50.19
2022-12-26T18:08:08.963Z,50.31
2022-12-26T18:10:37.150Z,50.35
2022-12-26T18:13:04.996Z,50.29
2022-12-26T18:15:32.828Z,50.15
2022-12-26T18:18:00.385Z,50.26
2022-12-26T18:20:29.867Z,50.13
2022-12-26T18:22:57.480Z,50.13
2022-12-26T18:25:25.449Z,49.96
2022-12-26T18:27:53.704Z,50.04
2022-12-26T18:30:21.724Z,49.92
2022-12-26T18:32:49.657Z,50.01
2022-12-26T18:35:17.331Z,49.97
2022-12-26T18:37:47.992Z,49.96
2022-12-26T18:40:21.994Z,49.86
2022-12-26T18:42:49.587Z,49.86
2022-12-26T18:45:17.205Z,49.84
2022-12-26T18:47:44.766Z,49.80
2022-12-26T18:50:12.714Z,49.76
2022-12-26T18:52:40.299Z,49.78
2022-12-26T18:55:09.488Z,49.80
2022-12-26T18:57:37.113Z,49.61
2022-12-26T19:00:04.907Z,49.63
2022-12-26T19:02:32.751Z,49.71
2022-12-26T19:05:00.353Z,49.69
2022-12-26T19:07:27.958Z,49.64
2022-12-26T19:09:55.688Z,49.65
2022-12-26T19:12:24.771Z,49.57
2022-12-26T19:14:52.341Z,49.58
2022-12-26T19:17:19.932Z,49.47
2022-12-26T19:19:47.503Z,49.56
2022-12-26T19:22:15.123Z,49.36
2022-12-26T19:24:42.879Z,49.36
2022-12-26T19:27:10.701Z,49.33
2022-12-26T19:29:39.685Z,49.36
2022-12-26T19:32:07.290Z,49.22
2022-12-26T19:34:34.849Z,49.31
2022-12-26T19:37:03.103Z,49.33
2022-12-26T19:39:30.678Z,49.13
2022-12-26T19:41:58.497Z,49.13
2022-12-26T19:44:26.099Z,48.97
2022-12-26T19:47:11.048Z,49.00
2022-12-26T19:49:39.880Z,48.97
2022-12-26T19:52:07.939Z,48.97
2022-12-26T19:54:35.545Z,48.76
2022-12-26T19:57:03.087Z,48.72
2022-12-26T19:59:30.632Z,48.66
2022-12-26T20:01:59.838Z,48.63
2022-12-26T20:04:28.147Z,48.56
2022-12-26T20:06:57.152Z,48.55
2022-12-26T20:09:24.940Z,48.38
2022-12-26T20:11:54.010Z,48.40
2022-12-26T20:14:21.965Z,48.25
2022-12-26T20:17:08.919Z,48.35
2022-12-26T20:19:38.454Z,48.36
2022-12-26T20:22:06.357Z,48.30
2022-12-26T20:24:34.076Z,48.19
2022-12-26T20:27:01.691Z,48.38
2022-12-26T20:29:29.334Z,48.45
2022-12-26T20:31:57.987Z,48.29
2022-12-26T20:34:26.677Z,48.26
2022-12-26T20:36:55.622Z,48.42
2022-12-26T20:39:23.382Z,48.21
2022-12-26T20:41:50.984Z,48.14
2022-12-26T20:44:18.655Z,48.14
2022-12-26T20:46:46.329Z,47.93
2022-12-26T20:49:14.002Z,48.03
2022-12-26T20:51:41.965Z,47.99
2022-12-26T20:54:11.817Z,47.98
2022-12-26T20:56:39.763Z,47.95
2022-12-26T20:59:07.367Z,48.00
2022-12-26T21:01:35.340Z,48.14
2022-12-26T21:04:03.048Z,47.92
2022-12-26T21:06:31.097Z,48.02
2022-12-26T21:08:58.897Z,48.01
2022-12-26T21:11:28.337Z,48.04
2022-12-26T21:13:56.821Z,47.79
2022-12-26T21:16:24.773Z,47.78
2022-12-26T21:18:52.534Z,47.85
2022-12-26T21:21:20.518Z,47.91
2022-12-26T21:23:48.217Z,47.80
2022-12-26T21:26:15.921Z,47.79
2022-12-26T21:28:44.875Z,47.73
2022-12-26T21:31:12.489Z,47.56
2022-12-26T21:33:44.485Z,47.43
2022-12-26T21:36:13.039Z,47.51
2022-12-26T21:38:40.796Z,47.70
2022-12-26T21:41:08.903Z,47.56
2022-12-26T21:43:36.578Z,47.79
2022-12-26T21:46:08.233Z,47.63
2022-12-26T21:48:35.890Z,47.68
2022-12-26T21:51:04.120Z,47.69
2022-12-26T21:53:31.722Z,47.62
2022-12-26T21:56:03.208Z,47.71
2022-12-26T21:58:31.012Z,47.61
2022-12-26T22:00:58.612Z,47.38
2022-12-26T22:03:44.836Z,47.61
2022-12-26T22:06:15.823Z,47.59
2022-12-26T22:08:44.674Z,47.53
2022-12-26T22:11:31.096Z,47.57
2022-12-26T22:13:58.686Z,47.73
2022-12-26T22:16:27.100Z,47.70
2022-12-26T22:18:56.340Z,47.83
2022-12-26T22:21:24.087Z,47.76
2022-12-26T22:23:51.818Z,47.59
2022-12-26T22:26:19.943Z,47.65
2022-12-26T22:28:47.577Z,47.88
2022-12-26T22:31:18.652Z,47.88
2022-12-26T22:33:46.269Z,47.75
2022-12-26T22:36:15.219Z,47.76
2022-12-26T22:38:42.829Z,47.70
2022-12-26T22:41:11.196Z,47.99
2022-12-26T22:43:38.782Z,47.56
2022-12-26T22:46:06.601Z,47.57
2022-12-26T22:48:34.288Z,47.55
2022-12-26T22:51:01.852Z,47.69
2022-12-26T22:53:30.873Z,47.76
2022-12-26T22:55:59.054Z,47.69
2022-12-26T22:58:26.647Z,48.04
2022-12-26T23:00:54.184Z,48.16
2022-12-26T23:03:21.892Z,48.01
2022-12-26T23:05:49.836Z,48.11
2022-12-26T23:08:18.378Z,48.10
2022-12-26T23:10:47.853Z,48.04
2022-12-26T23:13:15.644Z,48.01
2022-12-26T23:15:45.922Z,48.04
2022-12-26T23:18:34.881Z,48.01
2022-12-26T23:21:21.367Z,47.73
2022-12-26T23:23:49.229Z,47.54
2022-12-26T23:26:18.140Z,47.76
2022-12-26T23:29:11.783Z,47.76
2022-12-26T23:31:39.375Z,47.23
2022-12-26T23:34:06.973Z,47.22
2022-12-26T23:36:34.544Z,47.10
2022-12-26T23:39:03.296Z,46.86
2022-12-26T23:41:32.190Z,46.92
2022-12-26T23:43:59.954Z,46.76
2022-12-26T23:46:27.555Z,46.78
2022-12-26T23:48:55.165Z,47.06
2022-12-26T23:51:22.739Z,46.51
2022-12-26T23:53:50.306Z,46.82
2022-12-26T23:56:17.909Z,46.94
2022-12-26T23:58:46.847Z,46.83
